Time;durP1;ratioP1;P1;durP2;ratioP2;P2;SDS_P1;SDS_P2;PMS_P1;PMS_P2;Temp;Humidity;BMP_temperature;BMP_pressure;BME280_temperature;BME280_humidity;BME280_pressure;Samples;Min_cycle;Max_cycle;Signal;HPM_P1;HPM_P2
2022/06/17 00:00:38;;;;;;;;;;;;;;;23.47;41.95;101655.94;2084023;28;784;-57
2022/06/17 00:01:39;;;;;;;;;;;;;;;23.47;42.69;101653.22;2084029;28;846;-56
2022/06/17 00:02:39;;;;;;;;;;;;;;;23.47;42.02;101655.03;2083429;28;871;-56
2022/06/17 00:03:39;;;;;;;;;;;;;;;23.47;42.69;101652.34;2084051;28;850;-56
2022/06/17 00:04:39;;;;;;;;;;;;;;;23.47;42.86;101661.34;2084024;28;898;-56
2022/06/17 00:05:39;;;;;;;;;;;;;;;23.46;42.21;101656.88;2083999;28;957;-57
2022/06/17 00:06:41;;;;;;;;;;;;;;;23.46;42.50;101656.88;2083985;28;859;-57
2022/06/17 00:07:42;;;;;;;;;;;;;;;23.45;43.19;101652.41;2083441;28;851;-56
2022/06/17 00:08:43;;;;;;;;;;;;;;;23.45;43.17;101652.41;2083991;28;835;-56
2022/06/17 00:09:43;;;;;;;;;;;;;;;23.47;43.00;101652.34;2083998;28;787;-57
2022/06/17 00:10:44;;;;;;;;;;;;;;;23.46;43.55;101658.69;2083881;28;1890;-56
2022/06/17 00:11:44;;;;;;;;;;;;;;;23.45;43.19;101654.19;2083951;28;997;-57
2022/06/17 00:12:44;;;;;;;;;;;;;;;23.46;42.92;101658.69;2083422;28;829;-56
2022/06/17 00:13:44;;;;;;;;;;;;;;;23.43;43.93;101653.38;2083926;28;827;-56
2022/06/17 00:16:04;;;;;;;;;;;;;;;23.42;43.95;101652.50;2083943;28;613;-56
2022/06/17 00:17:07;;;;;;;;;;;;;;;23.41;43.28;101658.84;2083410;28;902;-56
2022/06/17 00:18:07;;;;;;;;;;;;;;;23.42;43.89;101660.59;2083919;28;831;-56
2022/06/17 00:19:08;;;;;;;;;;;;;;;23.44;44.08;101657.84;2083869;28;993;-56
2022/06/17 00:20:11;;;;;;;;;;;;;;;23.39;44.17;101656.16;2083182;28;1282;-56
2022/06/17 00:21:21;;;;;;;;;;;;;;;23.40;44.13;101651.66;2083230;28;1192;-56
2022/06/17 00:22:22;;;;;;;;;;;;;;;23.40;43.79;101651.66;2083320;28;867;-56
2022/06/17 00:23:24;;;;;;;;;;;;;;;23.41;44.32;101650.72;2083890;28;831;-56
2022/06/17 00:24:30;;;;;;;;;;;;;;;23.38;43.83;101651.69;2083824;28;815;-57
2022/06/17 00:25:34;;;;;;;;;;;;;;;23.37;44.52;101649.94;2083788;28;1226;-57
2022/06/17 00:26:35;;;;;;;;;;;;;;;23.36;44.60;101658.97;2083809;28;771;-56
2022/06/17 00:27:35;;;;;;;;;;;;;;;23.37;43.95;101655.34;2083119;28;1063;-57
2022/06/17 00:28:35;;;;;;;;;;;;;;;23.37;44.99;101651.75;2083772;28;1024;-57
2022/06/17 00:29:35;;;;;;;;;;;;;;;23.35;44.77;101656.34;2083823;28;815;-57
2022/06/17 00:30:35;;;;;;;;;;;;;;;23.37;44.62;101652.63;2083738;28;1891;-57
2022/06/17 00:31:35;;;;;;;;;;;;;;;23.38;44.91;101653.53;2083783;28;758;-56
2022/06/17 00:32:35;;;;;;;;;;;;;;;23.37;44.23;101654.47;2082547;28;885;-57
2022/06/17 00:33:36;;;;;;;;;;;;;;;23.36;44.76;101655.41;2083177;28;855;-56
2022/06/17 00:34:36;;;;;;;;;;;;;;;23.35;45.33;101653.63;2083732;28;788;-56
2022/06/17 00:35:38;;;;;;;;;;;;;;;23.36;44.90;101650.84;2083762;28;1331;-56
2022/06/17 00:36:39;;;;;;;;;;;;;;;23.35;45.64;101650.94;2083742;28;779;-56
2022/06/17 00:37:40;;;;;;;;;;;;;;;23.33;45.97;101650.09;2082392;28;1342;-56
2022/06/17 00:38:40;;;;;;;;;;;;;;;23.33;45.85;101653.66;2083130;28;795;-56
2022/06/17 00:39:40;;;;;;;;;;;;;;;23.32;46.04;101649.19;2083738;28;977;-56
2022/06/17 00:40:41;;;;;;;;;;;;;;;23.32;46.81;101651.03;2083742;28;981;-56
2022/06/17 00:41:42;;;;;;;;;;;;;;;23.33;46.88;101655.50;2083701;28;1025;-56
2022/06/17 00:42:43;;;;;;;;;;;;;;;23.33;46.55;101655.50;2083166;28;985;-57
2022/06/17 00:43:44;;;;;;;;;;;;;;;23.32;47.33;101656.44;2083694;28;1236;-56
2022/06/17 00:44:51;;;;;;;;;;;;;;;23.30;47.31;101658.31;2083654;28;887;-57
2022/06/17 00:45:57;;;;;;;;;;;;;;;23.30;46.88;101652.91;2083671;28;863;-56
2022/06/17 00:47:04;;;;;;;;;;;;;;;23.30;47.60;101650.19;2083400;28;985;-56
2022/06/17 00:48:25;;;;;;;;;;;;;;;23.29;47.31;101649.28;2075643;28;824;-56
2022/06/17 00:49:32;;;;;;;;;;;;;;;23.30;47.43;101647.50;2075487;28;1002;-56
2022/06/17 00:50:50;;;;;;;;;;;;;;;23.30;48.21;101647.50;2075367;28;1902;-56
2022/06/17 00:52:02;;;;;;;;;;;;;;;23.29;48.04;101648.41;2075430;28;950;-56
2022/06/17 00:53:09;;;;;;;;;;;;;;;23.28;48.65;101655.63;2075382;28;914;-57
2022/06/17 00:54:18;;;;;;;;;;;;;;;23.27;48.06;101658.41;2075112;28;879;-57
2022/06/17 00:55:30;;;;;;;;;;;;;;;23.26;48.44;101651.22;2075421;28;1030;-57
2022/06/17 00:56:34;;;;;;;;;;;;;;;23.25;48.14;101655.75;2075401;28;986;-56
2022/06/17 00:57:36;;;;;;;;;;;;;;;23.24;48.27;101657.56;2079573;28;1297;-56
2022/06/17 00:58:55;;;;;;;;;;;;;;;23.23;48.11;101658.50;2082963;28;986;-56
2022/06/17 01:00:04;;;;;;;;;;;;;;;23.23;48.25;101657.63;2083592;28;1033;-57
2022/06/17 01:01:10;;;;;;;;;;;;;;;23.21;48.68;101660.31;2083582;28;978;-56
2022/06/17 01:02:10;;;;;;;;;;;;;;;23.21;47.94;101654.06;2083001;28;825;-56
2022/06/17 01:03:14;;;;;;;;;;;;;;;23.20;47.95;101657.69;2083499;28;771;-57
2022/06/17 01:04:21;;;;;;;;;;;;;;;23.17;48.08;101653.25;2083510;28;978;-56
2022/06/17 01:05:25;;;;;;;;;;;;;;;23.17;47.25;101653.25;2083556;28;977;-57
2022/06/17 01:06:27;;;;;;;;;;;;;;;23.16;47.32;101665.00;2083519;28;789;-56
2022/06/17 01:07:31;;;;;;;;;;;;;;;23.15;46.22;101654.25;2082261;28;1041;-57
2022/06/17 01:09:58;;;;;;;;;;;;;;;23.13;46.46;101658.81;2083524;28;727;-56
2022/06/17 01:10:58;;;;;;;;;;;;;;;23.13;45.93;101654.28;2083480;28;1981;-56
2022/06/17 01:12:01;;;;;;;;;;;;;;;23.13;45.07;101658.81;2083138;28;894;-56
2022/06/17 01:13:03;;;;;;;;;;;;;;;23.12;44.57;101657.91;2083424;28;839;-57
2022/06/17 01:14:05;;;;;;;;;;;;;;;23.11;44.35;101653.44;2083449;28;849;-56
2022/06/17 01:15:07;;;;;;;;;;;;;;;23.10;45.00;101652.56;2083448;28;835;-56
2022/06/17 01:16:07;;;;;;;;;;;;;;;23.09;44.59;101658.00;2083373;28;1361;-57
2022/06/17 01:17:09;;;;;;;;;;;;;;;23.10;43.82;101657.06;2082940;28;906;-56
2022/06/17 01:18:11;;;;;;;;;;;;;;;23.09;43.41;101652.59;2083397;28;1037;-56
2022/06/17 01:19:14;;;;;;;;;;;;;;;23.08;43.52;101653.53;2083430;28;1044;-56
2022/06/17 01:20:15;;;;;;;;;;;;;;;23.08;44.02;101653.53;2083391;28;851;-56
2022/06/17 01:21:20;;;;;;;;;;;;;;;23.09;43.69;101652.59;2083412;28;1041;-57
2022/06/17 01:22:20;;;;;;;;;;;;;;;23.10;43.53;101648.97;2082933;28;1080;-56
2022/06/17 01:23:21;;;;;;;;;;;;;;;23.10;43.62;101651.66;2083399;28;1012;-57
2022/06/17 01:24:21;;;;;;;;;;;;;;;23.09;43.56;101653.50;2083396;28;878;-57
2022/06/17 01:25:33;;;;;;;;;;;;;;;23.09;43.69;101655.31;2083379;28;1028;-57
2022/06/17 01:26:34;;;;;;;;;;;;;;;23.07;43.59;101649.97;2083398;28;842;-56
2022/06/17 01:27:36;;;;;;;;;;;;;;;23.06;42.97;101653.59;2094812;23;2095;-56
2022/06/17 01:28:37;;;;;;;;;;;;;;;23.07;43.06;101654.47;2091599;28;1029;-56
2022/06/17 01:29:38;;;;;;;;;;;;;;;23.07;43.20;101660.75;2091614;28;756;-56
2022/06/17 01:30:42;;;;;;;;;;;;;;;23.07;42.77;101658.06;2091429;28;1910;-57
2022/06/17 01:31:46;;;;;;;;;;;;;;;23.07;43.41;101658.06;2091580;28;835;-57
2022/06/17 01:32:52;;;;;;;;;;;;;;;23.08;43.65;101658.94;2091314;28;1043;-56
2022/06/17 01:33:53;;;;;;;;;;;;;;;23.08;44.00;101661.63;2091539;28;1040;-56
2022/06/17 01:34:53;;;;;;;;;;;;;;;23.08;43.87;101656.22;2091524;28;807;-56
2022/06/17 01:35:57;;;;;;;;;;;;;;;23.08;44.08;101664.34;2091540;28;875;-56
2022/06/17 01:36:58;;;;;;;;;;;;;;;23.07;43.41;101655.38;2091365;28;1051;-56
2022/06/17 01:37:59;;;;;;;;;;;;;;;23.07;43.50;101668.88;2091419;28;972;-56
2022/06/17 01:38:59;;;;;;;;;;;;;;;23.06;43.79;101671.59;2091498;28;803;-57
2022/06/17 01:39:59;;;;;;;;;;;;;;;23.05;44.58;101667.13;2091519;28;784;-57
2022/06/17 01:41:01;;;;;;;;;;;;;;;23.05;43.87;101670.75;2091478;28;1029;-56
2022/06/17 01:42:01;;;;;;;;;;;;;;;23.06;44.45;101672.50;2091238;28;1048;-56
2022/06/17 01:43:04;;;;;;;;;;;;;;;23.06;43.87;101671.59;2091481;28;986;-56
2022/06/17 01:44:07;;;;;;;;;;;;;;;23.06;44.11;101666.19;2091473;28;803;-56
2022/06/17 01:45:08;;;;;;;;;;;;;;;23.06;43.89;101666.19;2091603;28;709;-57
2022/06/17 01:46:14;;;;;;;;;;;;;;;23.06;44.08;101672.50;2082601;28;2169;-56
2022/06/17 01:47:18;;;;;;;;;;;;;;;23.06;44.25;101674.31;2083035;28;1025;-56
2022/06/17 01:48:19;;;;;;;;;;;;;;;23.06;44.85;101667.09;2091463;28;1076;-56
2022/06/17 01:49:21;;;;;;;;;;;;;;;23.05;44.93;101677.94;2091562;28;901;-57
2022/06/17 01:50:26;;;;;;;;;;;;;;;23.06;44.86;101671.59;2091381;28;973;-56
2022/06/17 01:51:28;;;;;;;;;;;;;;;23.08;44.55;101677.84;2091606;28;1902;-56
2022/06/17 01:52:33;;;;;;;;;;;;;;;23.07;44.48;101681.47;2091182;28;961;-56
2022/06/17 01:53:37;;;;;;;;;;;;;;;23.04;44.86;101677.06;2091419;28;795;-57
2022/06/17 01:54:45;;;;;;;;;;;;;;;23.06;45.08;101677.00;2091445;28;920;-56
2022/06/17 01:55:47;;;;;;;;;;;;;;;23.05;45.00;101675.25;2091441;28;875;-56
2022/06/17 01:56:48;;;;;;;;;;;;;;;23.05;45.39;101678.84;2091447;28;823;-57
2022/06/17 01:57:52;;;;;;;;;;;;;;;23.06;44.72;101683.31;2091147;28;1032;-56
2022/06/17 01:59:09;;;;;;;;;;;;;;;23.06;45.70;101677.00;2091415;28;1005;-56
2022/06/17 02:00:17;;;;;;;;;;;;;;;23.04;44.37;101673.47;2091427;28;1005;-56
2022/06/17 02:01:18;;;;;;;;;;;;;;;23.03;44.98;101671.69;2091349;28;1949;-57
2022/06/17 02:02:18;;;;;;;;;;;;;;;23.03;44.05;101672.59;2091120;28;873;-56
2022/06/17 02:03:22;;;;;;;;;;;;;;;23.03;44.60;101677.09;2091349;28;1044;-56
2022/06/17 02:04:25;;;;;;;;;;;;;;;23.03;44.36;101674.41;2091346;28;855;-56
2022/06/17 02:05:26;;;;;;;;;;;;;;;23.02;43.63;101678.94;2081987;28;1304;-56
2022/06/17 02:06:31;;;;;;;;;;;;;;;23.02;43.70;101675.34;2082295;28;882;-56
2022/06/17 02:07:35;;;;;;;;;;;;;;;23.04;43.72;101673.47;2095552;28;1020;-56
2022/06/17 02:08:35;;;;;;;;;;;;;;;23.04;43.68;101676.16;2099672;28;882;-56
2022/06/17 02:09:35;;;;;;;;;;;;;;;23.04;43.25;101676.16;2099670;28;819;-56
2022/06/17 02:10:37;;;;;;;;;;;;;;;23.03;44.06;101672.59;2099558;28;1898;-56
2022/06/17 02:11:37;;;;;;;;;;;;;;;23.03;42.97;101669.00;2099657;28;787;-56
2022/06/17 02:12:38;;;;;;;;;;;;;;;23.02;43.20;101669.94;2098854;28;987;-56
2022/06/17 02:13:39;;;;;;;;;;;;;;;23.04;43.52;101668.06;2099623;28;807;-56
2022/06/17 02:14:39;;;;;;;;;;;;;;;23.02;43.47;101670.81;2099647;28;819;-56
2022/06/17 02:15:40;;;;;;;;;;;;;;;23.04;42.90;101677.06;2099662;28;965;-56
2022/06/17 02:16:48;;;;;;;;;;;;;;;23.05;42.88;101675.25;2099634;28;830;-56
2022/06/17 02:17:48;;;;;;;;;;;;;;;23.04;43.35;101679.78;2098825;28;1116;-56
2022/06/17 02:18:50;;;;;;;;;;;;;;;23.04;43.65;101673.47;2099627;28;910;-56
2022/06/17 02:19:50;;;;;;;;;;;;;;;23.05;43.51;101677.94;2099640;28;831;-56
2022/06/17 02:20:51;;;;;;;;;;;;;;;23.04;43.04;101678.88;2099569;28;926;-56
2022/06/17 02:21:56;;;;;;;;;;;;;;;23.05;42.87;101677.94;2099580;28;767;-56
2022/06/17 02:22:56;;;;;;;;;;;;;;;23.05;43.02;101686.03;2099163;28;1027;-56
2022/06/17 02:23:57;;;;;;;;;;;;;;;23.03;43.23;101679.81;2099596;28;1056;-56
2022/06/17 02:24:59;;;;;;;;;;;;;;;23.02;43.75;101678.03;2099545;28;1048;-56
2022/06/17 02:26:01;;;;;;;;;;;;;;;23.04;43.69;101676.16;2099615;28;965;-56
2022/06/17 02:27:04;;;;;;;;;;;;;;;23.05;43.36;101680.66;2098737;28;995;-56
2022/06/17 02:28:05;;;;;;;;;;;;;;;23.05;43.72;101681.53;2099626;28;825;-56
2022/06/17 02:29:07;;;;;;;;;;;;;;;23.04;44.01;101681.56;2099623;28;871;-56
2022/06/17 02:30:07;;;;;;;;;;;;;;;23.04;43.32;101673.47;2099588;28;973;-57
2022/06/17 02:31:08;;;;;;;;;;;;;;;23.04;44.28;101685.19;2099511;28;1914;-57
2022/06/17 02:32:10;;;;;;;;;;;;;;;23.05;44.14;101683.34;2098775;28;1063;-56
2022/06/17 02:33:11;;;;;;;;;;;;;;;23.05;43.76;101680.66;2099560;28;794;-56
2022/06/17 02:34:13;;;;;;;;;;;;;;;23.03;44.16;101678.00;2099553;28;843;-56
2022/06/17 02:35:31;;;;;;;;;;;;;;;23.04;44.34;101676.16;2099464;28;2186;-56
2022/06/17 02:36:40;;;;;;;;;;;;;;;23.05;44.14;101678.84;2099585;28;899;-56
2022/06/17 02:37:40;;;;;;;;;;;;;;;23.06;43.81;101677.00;2098644;28;1243;-56
2022/06/17 02:38:41;;;;;;;;;;;;;;;23.06;43.86;101674.31;2099517;28;815;-56
2022/06/17 02:39:43;;;;;;;;;;;;;;;23.05;44.13;101677.94;2099536;28;791;-56
2022/06/17 02:40:45;;;;;;;;;;;;;;;23.04;44.01;101682.47;2099499;28;958;-55
2022/06/17 02:41:46;;;;;;;;;;;;;;;23.04;44.58;101673.47;2099428;28;1841;-56
2022/06/17 02:42:46;;;;;;;;;;;;;;;23.02;44.90;101680.75;2098739;28;1055;-56
2022/06/17 02:43:49;;;;;;;;;;;;;;;23.03;45.10;101682.50;2099519;28;970;-56
2022/06/17 02:44:52;;;;;;;;;;;;;;;23.03;44.24;101677.09;2099507;28;993;-56
2022/06/17 02:45:54;;;;;;;;;;;;;;;23.04;44.98;101676.16;2099518;28;1048;-56
2022/06/17 02:46:55;;;;;;;;;;;;;;;23.04;44.30;101677.06;2099456;28;993;-56
2022/06/17 02:47:56;;;;;;;;;;;;;;;23.03;44.39;101680.72;2099270;28;1288;-57
2022/06/17 02:48:58;;;;;;;;;;;;;;;23.05;44.58;101688.75;2099493;28;981;-56
2022/06/17 02:49:59;;;;;;;;;;;;;;;23.03;45.18;101682.50;2099514;28;743;-56
2022/06/17 02:51:00;;;;;;;;;;;;;;;23.03;44.86;101682.50;2099409;28;1960;-56
2022/06/17 02:52:02;;;;;;;;;;;;;;;23.03;45.05;101682.50;2098746;28;1047;-56
2022/06/17 02:53:04;;;;;;;;;;;;;;;23.03;45.18;101680.72;2099499;28;871;-56
2022/06/17 02:54:05;;;;;;;;;;;;;;;23.04;44.72;101684.28;2099445;28;950;-56
2022/06/17 02:55:25;;;;;;;;;;;;;;;23.03;45.20;101687.91;2099519;28;850;-56
2022/06/17 02:56:27;;;;;;;;;;;;;;;23.02;45.80;101680.75;2098928;28;1244;-56
2022/06/17 02:57:29;;;;;;;;;;;;;;;23.01;44.91;101685.28;2098617;28;964;-56
2022/06/17 02:58:51;;;;;;;;;;;;;;;23.01;45.04;101685.28;2099563;28;780;-56
2022/06/17 02:59:56;;;;;;;;;;;;;;;23.03;45.18;101623.06;2099655;28;780;-56
2022/06/17 03:00:57;;;;;;;;;;;;;;;23.02;45.46;101626.69;2099444;28;795;-56
2022/06/17 03:02:00;;;;;;;;;;;;;;;23.01;44.97;101624.94;2099035;28;1047;-56
2022/06/17 03:03:03;;;;;;;;;;;;;;;22.99;45.25;101630.41;2099499;28;1000;-56
2022/06/17 03:04:19;;;;;;;;;;;;;;;23.00;45.78;101634.88;2099442;28;1075;-56
2022/06/17 03:05:31;;;;;;;;;;;;;;;23.00;46.07;101618.66;2099481;28;846;-56
2022/06/17 03:06:39;;;;;;;;;;;;;;;23.01;47.31;101625.81;2099575;28;783;-56
2022/06/17 03:07:39;;;;;;;;;;;;;;;23.03;47.05;101725.75;2098648;28;1036;-56
2022/06/17 03:08:42;;;;;;;;;;;;;;;23.04;47.60;101712.19;2099365;28;1021;-56
2022/06/17 03:09:43;;;;;;;;;;;;;;;23.03;48.28;101696.91;2099402;28;1028;-56
2022/06/17 03:10:43;;;;;;;;;;;;;;;23.04;47.65;101682.47;2099412;28;1886;-56
2022/06/17 03:11:44;;;;;;;;;;;;;;;23.04;47.87;101671.66;2099354;28;970;-56
2022/06/17 03:12:45;;;;;;;;;;;;;;;23.05;48.91;101664.44;2098573;28;1001;-56
2022/06/17 03:13:55;;;;;;;;;;;;;;;23.02;49.12;101665.44;2099390;28;818;-56
2022/06/17 03:15:04;;;;;;;;;;;;;;;23.01;48.54;101662.75;2099424;28;870;-56
2022/06/17 03:16:06;;;;;;;;;;;;;;;23.00;49.19;101663.69;2099461;28;1034;-56
2022/06/17 03:17:07;;;;;;;;;;;;;;;22.99;48.88;101662.81;2099152;28;1048;-56
2022/06/17 03:18:08;;;;;;;;;;;;;;;22.99;49.54;101670.03;2100867;28;938;-56
2022/06/17 03:19:09;;;;;;;;;;;;;;;22.98;49.06;101666.44;2100878;28;1003;-56
2022/06/17 03:20:13;;;;;;;;;;;;;;;22.98;49.27;101669.16;2100915;28;901;-56
2022/06/17 03:21:14;;;;;;;;;;;;;;;22.97;48.83;101672.78;2100870;28;798;-56
2022/06/17 03:22:14;;;;;;;;;;;;;;;22.98;48.74;101676.34;2100012;28;1047;-56
2022/06/17 03:23:26;;;;;;;;;;;;;;;22.97;49.26;101678.19;2100852;28;862;-56
2022/06/17 03:24:33;;;;;;;;;;;;;;;22.95;49.80;101672.84;2091936;28;1340;-56
2022/06/17 03:25:44;;;;;;;;;;;;;;;22.95;49.07;101675.56;2092812;28;965;-56
2022/06/17 03:26:48;;;;;;;;;;;;;;;22.95;49.90;101674.66;2100830;28;973;-56
2022/06/17 03:27:50;;;;;;;;;;;;;;;22.94;49.83;101672.88;2090926;28;1658;-56
2022/06/17 03:28:53;;;;;;;;;;;;;;;22.92;48.88;101674.75;2092054;28;997;-56
2022/06/17 03:29:55;;;;;;;;;;;;;;;22.91;48.72;101672.97;2100818;28;667;-56
2022/06/17 03:31:01;;;;;;;;;;;;;;;22.90;48.55;101673.91;2100728;28;1914;-56
2022/06/17 03:32:06;;;;;;;;;;;;;;;22.89;47.63;101664.03;2100028;28;1051;-55
2022/06/17 03:33:21;;;;;;;;;;;;;;;22.87;47.58;101666.78;2100669;28;1013;-56
2022/06/17 03:34:23;;;;;;;;;;;;;;;22.85;46.88;101671.34;2100786;28;985;-56
2022/06/17 03:35:25;;;;;;;;;;;;;;;22.84;46.75;101668.69;2100882;28;914;-57
2022/06/17 03:36:30;;;;;;;;;;;;;;;22.85;45.64;101667.75;2100738;28;799;-56
2022/06/17 03:37:34;;;;;;;;;;;;;;;22.83;45.18;101659.72;2100037;28;1031;-56
2022/06/17 03:38:49;;;;;;;;;;;;;;;22.82;45.09;101668.75;2100785;28;803;-56
2022/06/17 03:40:03;;;;;;;;;;;;;;;22.83;45.42;101661.50;2100765;28;818;-56
2022/06/17 03:41:08;;;;;;;;;;;;;;;22.83;44.39;101669.59;2100736;28;791;-56
2022/06/17 03:42:13;;;;;;;;;;;;;;;22.83;44.16;101664.22;2100126;28;1142;-55
2022/06/17 03:43:20;;;;;;;;;;;;;;;22.83;43.81;101664.22;2100737;28;784;-56
2022/06/17 03:44:21;;;;;;;;;;;;;;;22.83;43.53;101662.41;2100664;28;1052;-57
2022/06/17 03:45:23;;;;;;;;;;;;;;;22.81;43.33;101661.56;2100688;28;1104;-56
2022/06/17 03:46:24;;;;;;;;;;;;;;;22.81;43.44;101672.38;2100631;28;990;-56
2022/06/17 03:47:44;;;;;;;;;;;;;;;22.82;43.06;101667.84;2099841;28;1091;-57
2022/06/17 03:48:49;;;;;;;;;;;;;;;22.83;42.93;101661.50;2100653;28;977;-57
2022/06/17 03:49:54;;;;;;;;;;;;;;;22.82;43.45;101673.25;2091789;28;1217;-57
2022/06/17 03:50:54;;;;;;;;;;;;;;;22.82;43.33;101657.94;2092231;28;1961;-56
2022/06/17 03:51:58;;;;;;;;;;;;;;;22.83;42.53;101666.91;2100596;28;866;-56
2022/06/17 03:53:01;;;;;;;;;;;;;;;22.83;43.31;101666.91;2100238;28;1026;-56
2022/06/17 03:54:01;;;;;;;;;;;;;;;22.82;42.82;101657.94;2100605;28;930;-56
2022/06/17 03:55:01;;;;;;;;;;;;;;;22.83;43.41;101665.09;2100608;28;850;-56
2022/06/17 03:56:07;;;;;;;;;;;;;;;22.83;42.88;101666.91;2100612;28;851;-56
2022/06/17 03:57:09;;;;;;;;;;;;;;;22.84;43.53;101660.56;2099705;28;2110;-56
2022/06/17 03:58:15;;;;;;;;;;;;;;;22.83;43.70;101666.91;2100579;28;874;-56
2022/06/17 03:59:18;;;;;;;;;;;;;;;22.83;43.29;101658.81;2100596;28;1001;-56
2022/06/17 04:00:21;;;;;;;;;;;;;;;22.83;43.15;101658.81;2100576;28;886;-56
2022/06/17 04:01:54;;;;;;;;;;;;;;;22.82;43.89;101660.63;2100510;28;993;-56
2022/06/17 04:02:56;;;;;;;;;;;;;;;24.21;40.54;101652.53;2073937;28;1239;-56
2022/06/17 04:03:58;;;;;;;;;;;;;;;25.24;38.01;101656.81;2074850;28;941;-54
2022/06/17 04:04:59;;;;;;;;;;;;;;;25.99;36.89;101660.94;2066666;28;919;-55
2022/06/17 04:06:08;;;;;;;;;;;;;;;26.47;35.22;101658.84;2066802;28;818;-54
2022/06/17 04:07:10;;;;;;;;;;;;;;;26.86;34.35;101650.75;2073897;28;1048;-55
2022/06/17 04:08:11;;;;;;;;;;;;;;;27.28;33.11;101654.19;2074750;28;1370;-54
2022/06/17 04:09:19;;;;;;;;;;;;;;;27.59;32.48;101648.13;2074831;28;863;-55
2022/06/17 04:10:21;;;;;;;;;;;;;;;27.72;32.85;101647.47;2074889;28;803;-54
2022/06/17 04:11:23;;;;;;;;;;;;;;;27.99;31.70;101652.44;2074748;28;1890;-55
2022/06/17 04:12:27;;;;;;;;;;;;;;;28.34;31.54;101649.69;2073923;28;1095;-56
2022/06/17 04:13:29;;;;;;;;;;;;;;;28.57;30.86;101650.31;2074757;28;994;-56
2022/06/17 04:14:34;;;;;;;;;;;;;;;28.59;30.62;101653.81;2074635;28;1344;-55
2022/06/17 04:15:57;;;;;;;;;;;;;;;28.79;30.85;101637.28;2074768;28;922;-56
2022/06/17 04:17:02;;;;;;;;;;;;;;;29.25;29.60;101643.78;2074375;28;1111;-55
2022/06/17 04:18:02;;;;;;;;;;;;;;;29.40;29.50;101645.66;2066682;28;989;-56
2022/06/17 04:19:13;;;;;;;;;;;;;;;29.90;28.94;101645.44;2066631;28;1002;-56
2022/06/17 04:20:13;;;;;;;;;;;;;;;29.85;29.09;101645.69;2066609;28;934;-56
2022/06/17 04:21:13;;;;;;;;;;;;;;;29.83;29.19;101646.78;2066658;28;899;-56
2022/06/17 04:22:19;;;;;;;;;;;;;;;30.16;28.27;101649.31;2066328;28;1096;-56
2022/06/17 04:23:20;;;;;;;;;;;;;;;30.24;28.41;101651.56;2066651;28;1013;-56
2022/06/17 04:24:22;;;;;;;;;;;;;;;30.39;28.06;101640.66;2066548;28;892;-56
2022/06/17 04:25:31;;;;;;;;;;;;;;;30.49;28.41;101644.56;2066578;28;808;-56
2022/06/17 04:26:33;;;;;;;;;;;;;;;30.99;27.36;101645.00;2066564;28;941;-56
2022/06/17 04:29:04;;;;;;;;;;;;;;;31.37;26.95;101645.34;2065881;28;714;-56
2022/06/17 04:30:06;;;;;;;;;;;;;;;31.80;26.41;101636.94;2066576;28;922;-55
2022/06/17 04:31:07;;;;;;;;;;;;;;;32.00;26.05;101643.78;2066509;28;1915;-56
2022/06/17 04:32:15;;;;;;;;;;;;;;;32.08;26.01;101635.88;2066188;28;1154;-56
2022/06/17 04:33:23;;;;;;;;;;;;;;;32.51;25.54;101647.53;2066487;28;1129;-56
2022/06/17 04:34:23;;;;;;;;;;;;;;;32.63;25.08;101641.16;2066591;28;765;-55
2022/06/17 04:35:24;;;;;;;;;;;;;;;32.71;25.21;101636.97;2066516;28;911;-56
2022/06/17 04:36:26;;;;;;;;;;;;;;;32.74;25.16;101640.34;2058424;28;785;-56
2022/06/17 04:37:26;;;;;;;;;;;;;;;32.61;25.22;101645.88;2058183;28;1273;-56
2022/06/17 04:38:27;;;;;;;;;;;;;;;32.56;25.39;101648.06;2066447;28;1041;-55
2022/06/17 04:39:33;;;;;;;;;;;;;;;32.53;25.51;101651.94;2079342;28;926;-56
2022/06/17 04:40:39;;;;;;;;;;;;;;;32.88;24.92;101649.47;2083816;28;1012;-56
2022/06/17 04:41:40;;;;;;;;;;;;;;;32.61;25.40;101656.84;2083793;28;753;-56
2022/06/17 04:42:42;;;;;;;;;;;;;;;32.86;25.07;101652.34;2089674;28;961;-56
2022/06/17 04:43:47;;;;;;;;;;;;;;;32.56;25.52;101650.81;2092049;28;787;-56
2022/06/17 04:44:48;;;;;;;;;;;;;;;32.88;25.18;101655.84;2091929;28;819;-56
2022/06/17 04:45:52;;;;;;;;;;;;;;;32.94;25.37;101660.00;2091899;28;887;-56
2022/06/17 04:47:04;;;;;;;;;;;;;;;32.79;25.16;101656.50;2091912;28;1025;-55
2022/06/17 04:48:04;;;;;;;;;;;;;;;32.68;25.59;101662.75;2091804;28;1662;-55
2022/06/17 04:49:06;;;;;;;;;;;;;;;32.90;25.30;101664.84;2091942;28;855;-55
2022/06/17 04:50:11;;;;;;;;;;;;;;;33.01;25.38;101660.41;2091893;28;990;-56
2022/06/17 04:51:11;;;;;;;;;;;;;;;33.12;25.06;101660.47;2091975;28;1906;-55
2022/06/17 04:52:19;;;;;;;;;;;;;;;33.26;25.09;101660.31;2091614;28;968;-56
2022/06/17 04:53:19;;;;;;;;;;;;;;;33.18;25.25;101656.41;2091881;28;870;-56
2022/06/17 04:54:19;;;;;;;;;;;;;;;33.07;25.15;101658.09;2091812;28;899;-56
2022/06/17 04:55:20;;;;;;;;;;;;;;;33.18;25.29;101654.53;2091872;28;827;-56
2022/06/17 04:56:31;;;;;;;;;;;;;;;33.30;25.13;101662.84;2091828;28;970;-56
2022/06/17 04:57:32;;;;;;;;;;;;;;;33.25;25.20;101657.72;2091577;28;1059;-56
2022/06/17 04:58:32;;;;;;;;;;;;;;;33.34;25.31;101653.38;2091812;28;880;-56
2022/06/17 04:59:44;;;;;;;;;;;;;;;33.33;25.30;101652.50;2091786;28;867;-56
2022/06/17 05:00:50;;;;;;;;;;;;;;;33.44;25.02;101662.72;2091898;28;878;-56
2022/06/17 05:01:51;;;;;;;;;;;;;;;33.62;25.05;101660.41;2091749;28;1018;-56
2022/06/17 05:02:51;;;;;;;;;;;;;;;33.46;25.26;101657.09;2091476;28;881;-56
2022/06/17 05:03:57;;;;;;;;;;;;;;;33.65;24.98;101657.44;2091760;28;1040;-56
2022/06/17 05:04:59;;;;;;;;;;;;;;;33.75;24.90;101653.97;2091809;28;985;-56
2022/06/17 05:05:59;;;;;;;;;;;;;;;33.61;25.29;101660.50;2091789;28;802;-56
2022/06/17 05:06:59;;;;;;;;;;;;;;;33.74;25.43;101655.81;2091542;28;1047;-55
2022/06/17 05:08:01;;;;;;;;;;;;;;;33.72;25.76;101660.56;2091683;28;1122;-56
2022/06/17 05:09:05;;;;;;;;;;;;;;;33.94;25.69;101654.28;2091767;28;989;-56
2022/06/17 05:10:07;;;;;;;;;;;;;;;33.91;25.88;101649.00;2091779;28;813;-56
2022/06/17 05:11:14;;;;;;;;;;;;;;;33.74;26.48;101657.72;2091630;28;1947;-56
2022/06/17 05:12:18;;;;;;;;;;;;;;;33.63;26.52;101651.19;2091492;28;988;-56
2022/06/17 05:13:23;;;;;;;;;;;;;;;33.64;26.74;101657.53;2091820;28;819;-56
2022/06/17 05:14:46;;;;;;;;;;;;;;;33.68;26.71;101654.44;2091674;28;1141;-55
2022/06/17 05:15:46;;;;;;;;;;;;;;;33.89;26.46;101648.25;2091713;28;842;-56
2022/06/17 05:16:46;;;;;;;;;;;;;;;33.68;26.68;101648.94;2082787;28;819;-56
2022/06/17 05:17:47;;;;;;;;;;;;;;;33.56;26.74;101639.78;2082606;28;1452;-56
2022/06/17 05:18:47;;;;;;;;;;;;;;;33.72;26.42;101646.81;2091536;28;985;-56
2022/06/17 05:19:50;;;;;;;;;;;;;;;34.00;26.08;101644.72;2091589;28;818;-56
2022/06/17 05:20:50;;;;;;;;;;;;;;;33.89;26.38;101650.13;2091636;28;886;-56
2022/06/17 05:21:51;;;;;;;;;;;;;;;33.78;26.38;101646.34;2091658;28;767;-56
2022/06/17 05:22:56;;;;;;;;;;;;;;;33.78;26.47;101645.50;2082480;28;1060;-56
2022/06/17 05:23:57;;;;;;;;;;;;;;;34.08;26.12;101650.47;2083453;28;873;-56
2022/06/17 05:24:59;;;;;;;;;;;;;;;34.03;26.20;101647.22;2091618;28;938;-56
2022/06/17 05:25:59;;;;;;;;;;;;;;;34.12;25.71;101651.97;2091615;28;847;-56
2022/06/17 05:26:59;;;;;;;;;;;;;;;33.93;26.42;101640.69;2082458;28;1460;-55
2022/06/17 05:27:59;;;;;;;;;;;;;;;33.78;26.41;101646.34;2082549;28;1147;-56
2022/06/17 05:28:59;;;;;;;;;;;;;;;33.63;26.74;101639.31;2091486;28;874;-56
2022/06/17 05:30:00;;;;;;;;;;;;;;;33.56;26.93;101641.66;2091576;28;1052;-56
2022/06/17 05:31:00;;;;;;;;;;;;;;;33.76;26.52;101647.47;2091495;28;1914;-56
2022/06/17 05:32:00;;;;;;;;;;;;;;;34.00;26.00;101641.97;2091344;28;850;-55
2022/06/17 05:33:00;;;;;;;;;;;;;;;34.00;26.40;101648.31;2091481;28;1074;-56
2022/06/17 05:34:00;;;;;;;;;;;;;;;33.80;26.18;101635.25;2091536;28;981;-56
2022/06/17 05:35:00;;;;;;;;;;;;;;;33.76;26.44;101637.34;2091540;28;888;-56
2022/06/17 05:36:01;;;;;;;;;;;;;;;33.60;26.77;101639.53;2091492;28;986;-56
2022/06/17 05:37:01;;;;;;;;;;;;;;;33.81;26.20;101637.88;2091269;28;1004;-55